Westward Wind — WCX9055 — position and weather

sailwx.info

Track history (hours):
 
Tides and Currents Weather Stations Pressure Air Temp Water Temp Dewpoint Dewpoint Depression Visibility Wind Speed Wind Dir Waves Ship Positions

Westward Wind

Owner: HIGHLAND LIGHT SEAFOODS LLC, SEATTLE, WA. More information available from US FCC via Universal Licensing System and Coast Guard Vessel Documentation Center.

Last reported at 2018-Jun-17 20:41 UTC. Time now 2018-Jun-17 23:50 UTC.
Position N 50°30' W 126°30'.

Length 49 m.

Type: Fishing. MMSI: 367000620.

Date/timePositionNaut miles runAvg speedWind from/ knotsBaromVisibWave heightAir tempDewpointWater temp
2018-Jun-17 20:41N 50°30' W 126°30'4110.6
2018-Jun-17 16:49N 50°20' W 125°27'4 9.6
2018-Jun-17 16:25N 50°17' W 125°24'410.0
2018-Jun-17 16:00N 50°13' W 125°23'5 9.4
2018-Jun-17 15:30N 50°08' W 125°21'4 8.1
2018-Jun-17 15:01N 50°06' W 125°17'4 7.4
2018-Jun-17 14:30N 50°02' W 125°14'3 5.8
2018-Jun-17 14:00N 49°60' W 125°12'3 5.3
2018-Jun-17 13:30N 49°58' W 125°10'4 8.5
2018-Jun-17 13:00N 49°55' W 125°05'5 9.3
2018-Jun-17 12:30N 49°51' W 125°00'5 9.2
2018-Jun-17 12:00N 49°48' W 124°55'5 9.0
2018-Jun-17 11:30N 49°45' W 124°50'4 8.7
2018-Jun-17 11:00N 49°42' W 124°45'4 8.6
2018-Jun-17 10:30N 49°39' W 124°40'4 8.3
2018-Jun-17 09:59N 49°36' W 124°35'4 8.0
2018-Jun-17 09:28N 49°33' W 124°31'4 8.3
2018-Jun-17 08:56N 49°30' W 124°26'84 7.9
2018-Jun-16 22:19N 48°41' W 122°42'3 8.1
2018-Jun-16 22:00N 48°39' W 122°43'6 8.3
2018-Jun-16 21:15N 48°32' W 122°44'36 8.6
2018-Jun-16 17:02N 47°57' W 122°32'011.3
2018-Jun-16 17:00N 47°57' W 122°32'510.2
2018-Jun-16 16:30N 47°53' W 122°28'5 9.5
2018-Jun-16 16:00N 47°48' W 122°26'4 8.4
2018-Jun-16 15:30N 47°44' W 122°25'4 7.5
2018-Jun-16 15:00N 47°40' W 122°24'1 1.1
2018-Jun-16 14:30N 47°40' W 122°24'1 1.7
2018-Jun-16 14:00N 47°40' W 122°23'0 0.1
2018-Jun-16 13:30N 47°40' W 122°23'0 0.0
2018-Jun-16 13:00N 47°40' W 122°23'0 0.0
2018-Jun-16 12:30N 47°40' W 122°23'0 0.0
2018-Jun-16 12:00N 47°40' W 122°23'0 0.0
2018-Jun-16 11:30N 47°40' W 122°23'0 0.0
2018-Jun-16 11:00N 47°40' W 122°23'0 0.1
2018-Jun-16 10:30N 47°40' W 122°23'0 0.1
2018-Jun-16 10:00N 47°40' W 122°23'0 0.1
2018-Jun-16 09:30N 47°40' W 122°23'0 0.1
2018-Jun-16 09:00N 47°40' W 122°23'0 0.0
2018-Jun-16 08:30N 47°40' W 122°23'0 0.0
2018-Jun-16 08:00N 47°40' W 122°23'0 0.0
2018-Jun-16 07:30N 47°40' W 122°23'0 0.0
2018-Jun-16 07:00N 47°40' W 122°23'0 0.0
2018-Jun-16 06:30N 47°40' W 122°23'0 0.0
2018-Jun-16 06:00N 47°40' W 122°23'0 0.0
2018-Jun-16 05:30N 47°40' W 122°23'0 0.0
2018-Jun-16 05:00N 47°40' W 122°23'0 0.0
2018-Jun-16 04:30N 47°40' W 122°23'0 0.0
2018-Jun-16 04:00N 47°40' W 122°23'0 0.0
2018-Jun-16 03:30N 47°40' W 122°23'0 0.0
2018-Jun-16 03:00N 47°40' W 122°23'0 0.0
2018-Jun-16 02:30N 47°40' W 122°23'0 0.0
2018-Jun-16 02:00N 47°40' W 122°23'0 0.0
2018-Jun-16 01:30N 47°40' W 122°23'0 0.0
2018-Jun-16 01:00N 47°40' W 122°23'0 0.0
2018-Jun-16 00:30N 47°40' W 122°23'0 0.0
2018-Jun-16 00:00N 47°40' W 122°23'0 0.0
2018-Jun-15 23:30N 47°40' W 122°23'0 0.0
2018-Jun-15 23:00N 47°40' W 122°23'0 0.0
2018-Jun-15 22:30N 47°40' W 122°23'0 0.0
2018-Jun-15 22:00N 47°40' W 122°23'0 0.0
2018-Jun-15 21:30N 47°40' W 122°23'0 0.0
2018-Jun-15 21:00N 47°40' W 122°23'0 0.0
2018-Jun-15 20:30N 47°40' W 122°23'0 0.0
2018-Jun-15 20:00N 47°40' W 122°23'0 0.3
2018-Jun-15 19:30N 47°39' W 122°23'0 0.0
2018-Jun-15 19:00N 47°39' W 122°23'0 0.0
2018-Jun-15 18:30N 47°39' W 122°23'0 0.0
2018-Jun-15 18:00N 47°39' W 122°23'0 0.3
2018-Jun-15 17:30N 47°40' W 122°23'0 0.0
2018-Jun-15 17:00N 47°40' W 122°23'0 0.0
2018-Jun-15 16:30N 47°40' W 122°23'0 0.0
2018-Jun-15 16:00N 47°40' W 122°23'0 0.0
2018-Jun-15 15:30N 47°40' W 122°23'0 0.0
2018-Jun-15 15:00N 47°40' W 122°23'0 0.0
2018-Jun-15 14:30N 47°40' W 122°23'0 0.0
2018-Jun-15 14:00N 47°40' W 122°23'0 0.0
2018-Jun-15 13:30N 47°40' W 122°23'0 0.0
2018-Jun-15 13:00N 47°40' W 122°23'0 0.0
2018-Jun-15 12:30N 47°40' W 122°23'0 0.0
2018-Jun-15 12:00N 47°40' W 122°23'0 0.0
2018-Jun-15 11:30N 47°40' W 122°23'0 0.0
2018-Jun-15 11:00N 47°40' W 122°23'0 0.0
2018-Jun-15 10:30N 47°40' W 122°23'0 0.0
2018-Jun-15 10:00N 47°40' W 122°23'0 0.0
2018-Jun-15 09:30N 47°40' W 122°23'0 0.0
2018-Jun-15 09:00N 47°40' W 122°23'0 0.0
2018-Jun-15 08:30N 47°40' W 122°23'0 0.0
2018-Jun-15 08:00N 47°40' W 122°23'0 0.0
2018-Jun-15 07:30N 47°40' W 122°23'0 0.0
2018-Jun-15 07:00N 47°40' W 122°23'0 0.0
2018-Jun-15 06:30N 47°40' W 122°23'0 0.0
2018-Jun-15 06:00N 47°40' W 122°23'0 0.0
2018-Jun-15 05:30N 47°40' W 122°23'0 0.0
2018-Jun-15 05:00N 47°40' W 122°23'0 0.0
2018-Jun-15 04:30N 47°40' W 122°23'0 0.0
2018-Jun-15 04:00N 47°40' W 122°23'0 0.0
2018-Jun-15 03:30N 47°40' W 122°23'0 0.0
2018-Jun-15 03:00N 47°40' W 122°23'0 0.0
2018-Jun-15 02:30N 47°40' W 122°23'0 0.0
2018-Jun-15 02:00N 47°40' W 122°23'0 0.0
2018-Jun-15 01:30N 47°40' W 122°23'0 0.0
2018-Jun-15 01:00N 47°40' W 122°23'0 0.1
2018-Jun-15 00:30N 47°40' W 122°23'0 0.1
2018-Jun-15 00:00N 47°40' W 122°23'0 0.0
2018-Jun-14 23:30N 47°40' W 122°23'0 0.1
2018-Jun-14 23:00N 47°40' W 122°23'0 0.1
2018-Jun-14 22:30N 47°40' W 122°23'0 0.0
2018-Jun-14 22:00N 47°40' W 122°23'0 0.0
2018-Jun-14 21:30N 47°40' W 122°23'0 0.0
2018-Jun-14 21:00N 47°40' W 122°23'0 0.0
2018-Jun-14 20:30N 47°40' W 122°23'0 0.0
2018-Jun-14 20:00N 47°40' W 122°23'0 0.1
2018-Jun-14 19:31N 47°40' W 122°23'1 1.2
2018-Jun-14 19:00N 47°40' W 122°23'0 0.0
2018-Jun-14 18:30N 47°40' W 122°23'0 0.0
2018-Jun-14 18:00N 47°40' W 122°23'0 0.0
2018-Jun-14 17:30N 47°40' W 122°23'0 0.0
2018-Jun-14 17:00N 47°40' W 122°23'0 0.0
2018-Jun-14 16:30N 47°40' W 122°23'0 0.0
2018-Jun-14 16:00N 47°40' W 122°23'0 0.0
2018-Jun-14 15:30N 47°40' W 122°23'0 0.0
2018-Jun-14 15:00N 47°40' W 122°23'0 0.4
2018-Jun-14 14:30N 47°40' W 122°23'0 0.9
2018-Jun-14 14:00N 47°40' W 122°23'0 0.0
2018-Jun-14 13:30N 47°40' W 122°23'0 0.0
2018-Jun-14 13:00N 47°40' W 122°23'0 0.0
2018-Jun-14 12:30N 47°40' W 122°23'0 0.0
2018-Jun-14 12:00N 47°40' W 122°23'0 0.0
2018-Jun-14 11:30N 47°40' W 122°23'0 0.0
2018-Jun-14 11:00N 47°40' W 122°23'0 0.0
2018-Jun-14 10:30N 47°40' W 122°23'0 0.0
2018-Jun-14 10:00N 47°40' W 122°23'0 0.0
2018-Jun-14 09:30N 47°40' W 122°23'0 0.0
2018-Jun-14 09:00N 47°40' W 122°23'0 0.0
2018-Jun-14 08:30N 47°40' W 122°23'0 0.0
2018-Jun-14 08:00N 47°40' W 122°23'0 0.0
2018-Jun-14 07:30N 47°40' W 122°23'0 0.0
2018-Jun-14 07:00N 47°40' W 122°23'0 0.0
2018-Jun-14 06:30N 47°40' W 122°23'0 0.0
2018-Jun-14 06:00N 47°40' W 122°23'0 0.0
2018-Jun-14 05:30N 47°40' W 122°23'0 0.0
2018-Jun-14 05:00N 47°40' W 122°23'0 0.0
2018-Jun-14 04:30N 47°40' W 122°23'0 0.0
2018-Jun-14 04:00N 47°40' W 122°23'0 0.0
2018-Jun-14 03:30N 47°40' W 122°23'0 0.0
2018-Jun-14 03:00N 47°40' W 122°23'0 0.0
2018-Jun-14 02:30N 47°40' W 122°23'0 0.0
2018-Jun-14 02:00N 47°40' W 122°23'0 0.0
2018-Jun-14 01:30N 47°40' W 122°23'0 0.0
2018-Jun-14 01:00N 47°40' W 122°23'0 0.0
2018-Jun-14 00:30N 47°40' W 122°23'0 0.0
2018-Jun-14 00:00N 47°40' W 122°23'0 0.0
2018-Jun-13 23:30N 47°40' W 122°23'0 0.0
2018-Jun-13 23:00N 47°40' W 122°23'0 0.0
2018-Jun-13 22:30N 47°40' W 122°23'0 0.0
2018-Jun-13 22:00N 47°40' W 122°23'0 0.0
2018-Jun-13 21:30N 47°40' W 122°23'0 0.0
2018-Jun-13 21:00N 47°40' W 122°23'0 0.0
2018-Jun-13 20:30N 47°40' W 122°23'0 0.0
2018-Jun-13 20:00N 47°40' W 122°23'0 0.0
2018-Jun-13 19:30N 47°40' W 122°23'0 0.0
2018-Jun-13 19:00N 47°40' W 122°23'0 0.0
2018-Jun-13 18:30N 47°40' W 122°23'0 0.0
2018-Jun-13 17:59N 47°40' W 122°23'0 0.0
2018-Jun-13 17:30N 47°40' W 122°23'0 0.0
2018-Jun-13 17:00N 47°40' W 122°23'0 0.0
2018-Jun-13 16:30N 47°40' W 122°23'0 0.0
2018-Jun-13 16:00N 47°40' W 122°23'0 0.0
2018-Jun-13 15:30N 47°40' W 122°23'0 0.0
2018-Jun-13 15:00N 47°40' W 122°23'0 0.0
2018-Jun-13 14:30N 47°40' W 122°23'0 0.0
2018-Jun-13 14:00N 47°40' W 122°23'0 0.0
2018-Jun-13 13:30N 47°40' W 122°23'0 0.0
2018-Jun-13 13:00N 47°40' W 122°23'0 0.0
2018-Jun-13 12:30N 47°40' W 122°23'0 0.0
2018-Jun-13 12:00N 47°40' W 122°23'0 0.0
2018-Jun-13 11:30N 47°40' W 122°23'0 0.0
2018-Jun-13 11:00N 47°40' W 122°23'0 0.0
2018-Jun-13 10:30N 47°40' W 122°23'0 0.0
2018-Jun-13 10:00N 47°40' W 122°23'0 0.0
2018-Jun-13 09:30N 47°40' W 122°23'0 0.0
2018-Jun-13 09:00N 47°40' W 122°23'0 0.0
2018-Jun-13 08:30N 47°40' W 122°23'0 0.0
2018-Jun-13 08:00N 47°40' W 122°23'0 0.0
2018-Jun-13 07:30N 47°40' W 122°23'0 0.0
2018-Jun-13 07:00N 47°40' W 122°23'0 0.0
2018-Jun-13 06:30N 47°40' W 122°23'0 0.0
2018-Jun-13 06:00N 47°40' W 122°23'0 0.0
2018-Jun-13 05:30N 47°40' W 122°23'0 0.0
2018-Jun-13 05:00N 47°40' W 122°23'0 0.0
2018-Jun-13 04:30N 47°40' W 122°23'0 0.0
2018-Jun-13 04:00N 47°40' W 122°23'0 0.0
2018-Jun-13 03:30N 47°40' W 122°23'0 0.0
2018-Jun-13 03:00N 47°40' W 122°23'0 0.0
2018-Jun-13 02:30N 47°40' W 122°23'0 0.0
2018-Jun-13 02:00N 47°40' W 122°23'0 0.0
2018-Jun-13 01:30N 47°40' W 122°23'0 0.0
2018-Jun-13 01:00N 47°40' W 122°23'0 0.0
2018-Jun-13 00:30N 47°40' W 122°23'0 0.0
2018-Jun-13 00:00N 47°40' W 122°23'0 0.0
2018-Jun-12 23:29N 47°40' W 122°23'0 0.0
2018-Jun-12 23:00N 47°40' W 122°23'0 0.0
2018-Jun-12 22:30N 47°40' W 122°23'0 0.0
2018-Jun-12 22:00N 47°40' W 122°23'0 0.0
2018-Jun-12 21:30N 47°40' W 122°23'0 0.0
2018-Jun-12 21:00N 47°40' W 122°23'0 0.0
2018-Jun-12 20:30N 47°40' W 122°23'0 0.0
2018-Jun-12 20:00N 47°40' W 122°23'0 0.0
2018-Jun-12 19:30N 47°40' W 122°23'0 0.0
2018-Jun-12 19:00N 47°40' W 122°23'0 0.0
2018-Jun-12 18:30N 47°40' W 122°23'0 0.0
2018-Jun-12 18:00N 47°40' W 122°23'0 0.0
2018-Jun-12 17:30N 47°40' W 122°23'0 0.0
2018-Jun-12 17:00N 47°40' W 122°23'0 0.0
2018-Jun-12 16:30N 47°40' W 122°23'0 0.0
2018-Jun-12 16:00N 47°40' W 122°23'0 0.0
2018-Jun-12 15:30N 47°40' W 122°23'0 0.0
2018-Jun-12 15:00N 47°40' W 122°23'0 0.0
2018-Jun-12 14:30N 47°40' W 122°23'0 0.0
2018-Jun-12 14:00N 47°40' W 122°23'0 0.0
2018-Jun-12 13:30N 47°40' W 122°23'0 0.0
2018-Jun-12 13:00N 47°40' W 122°23'0 0.0
2018-Jun-12 12:30N 47°40' W 122°23'0 0.0
2018-Jun-12 12:00N 47°40' W 122°23'0 0.0
2018-Jun-12 11:30N 47°40' W 122°23'0 0.0
2018-Jun-12 11:00N 47°40' W 122°23'0 0.0
2018-Jun-12 10:30N 47°40' W 122°23'0 0.0
2018-Jun-12 10:00N 47°40' W 122°23'0 0.0
2018-Jun-12 09:30N 47°40' W 122°23'0 0.0
2018-Jun-12 09:00N 47°40' W 122°23'0 0.0
2018-Jun-12 08:30N 47°40' W 122°23'0 0.0
2018-Jun-12 08:00N 47°40' W 122°23'0 0.0
2018-Jun-12 07:29N 47°40' W 122°23'0 0.0
2018-Jun-12 07:00N 47°40' W 122°23'0 0.0
2018-Jun-12 06:30N 47°40' W 122°23'0 0.0
2018-Jun-12 06:00N 47°40' W 122°23'0 0.0
2018-Jun-12 05:30N 47°40' W 122°23'0 0.0
2018-Jun-12 05:00N 47°40' W 122°23'0 0.0
2018-Jun-12 04:30N 47°40' W 122°23'0 0.0
2018-Jun-12 04:00N 47°40' W 122°23'0 0.0
2018-Jun-12 03:30N 47°40' W 122°23'0 0.0
2018-Jun-12 03:00N 47°40' W 122°23'0 0.0
2018-Jun-12 02:29N 47°40' W 122°23'0 0.0
2018-Jun-12 02:00N 47°40' W 122°23'0 0.0
2018-Jun-12 01:30N 47°40' W 122°23'0 0.0
2018-Jun-12 01:00N 47°40' W 122°23'0 0.0
2018-Jun-12 00:30N 47°40' W 122°23'0 0.0
2018-Jun-11 23:59N 47°40' W 122°23'0 0.0
2018-Jun-11 23:30N 47°40' W 122°23'0 0.0
2018-Jun-11 23:00N 47°40' W 122°23'0 0.0
2018-Jun-11 22:30N 47°40' W 122°23'0 0.0
2018-Jun-11 22:00N 47°40' W 122°23'0 0.0
2018-Jun-11 21:30N 47°40' W 122°23'0 0.0
2018-Jun-11 21:00N 47°40' W 122°23'0 0.0
2018-Jun-11 20:30N 47°40' W 122°23'0 0.0
2018-Jun-11 20:00N 47°40' W 122°23'0 0.0
2018-Jun-11 19:30N 47°40' W 122°23'0 0.0
2018-Jun-11 19:00N 47°40' W 122°23'0 0.0
2018-Jun-11 18:30N 47°40' W 122°23'0 0.0
2018-Jun-11 18:00N 47°40' W 122°23'0 0.0
2018-Jun-11 17:30N 47°40' W 122°23'0 0.0
2018-Jun-11 17:00N 47°40' W 122°23'0 0.0
2018-Jun-11 16:29N 47°40' W 122°23'0 0.0
2018-Jun-11 16:00N 47°40' W 122°23'0 0.0
2018-Jun-11 15:30N 47°40' W 122°23'0 0.0
2018-Jun-11 15:00N 47°40' W 122°23'0 0.0
2018-Jun-11 14:30N 47°40' W 122°23'0 0.0
2018-Jun-11 14:00N 47°40' W 122°23'0 0.0
2018-Jun-11 13:30N 47°40' W 122°23'0 0.0
2018-Jun-11 13:00N 47°40' W 122°23'0 0.0
2018-Jun-11 12:30N 47°40' W 122°23'0 0.0
2018-Jun-11 12:00N 47°40' W 122°23'0 0.0
2018-Jun-11 11:30N 47°40' W 122°23'0 0.0
2018-Jun-11 11:00N 47°40' W 122°23'0 0.0
2018-Jun-11 10:30N 47°40' W 122°23'0 0.0
2018-Jun-11 10:00N 47°40' W 122°23'0 0.0
2018-Jun-11 09:30N 47°40' W 122°23'0 0.0
2018-Jun-11 09:00N 47°40' W 122°23'0 0.0
2018-Jun-11 08:30N 47°40' W 122°23'0 0.0
2018-Jun-11 08:00N 47°40' W 122°23'0 0.0
2018-Jun-11 07:30N 47°40' W 122°23'0 0.0
2018-Jun-11 07:00N 47°40' W 122°23'0 0.0
2018-Jun-11 06:30N 47°40' W 122°23'0 0.0
2018-Jun-11 06:00N 47°40' W 122°23'0 0.0
2018-Jun-11 05:30N 47°40' W 122°23'0 0.0
2018-Jun-11 05:00N 47°40' W 122°23'0 0.0
2018-Jun-11 04:30N 47°40' W 122°23'0 0.0
2018-Jun-11 04:00N 47°40' W 122°23'0 0.0
2018-Jun-11 03:30N 47°40' W 122°23'0 0.0
2018-Jun-11 03:00N 47°40' W 122°23'0 0.0
2018-Jun-11 02:30N 47°40' W 122°23'0 0.0
2018-Jun-11 02:00N 47°40' W 122°23'0 0.0
2018-Jun-11 01:30N 47°40' W 122°23'0 0.0
2018-Jun-11 01:00N 47°40' W 122°23'0 0.0
2018-Jun-11 00:30N 47°40' W 122°23'0 0.0
2018-Jun-11 00:00N 47°40' W 122°23'0 0.0
2018-Jun-10 23:30N 47°40' W 122°23'0 0.0
2018-Jun-10 23:00N 47°40' W 122°23'0 0.0
2018-Jun-10 22:30N 47°40' W 122°23'0 0.0
2018-Jun-10 22:00N 47°40' W 122°23'0 0.0
2018-Jun-10 21:30N 47°40' W 122°23'0 0.0
2018-Jun-10 21:00N 47°40' W 122°23'0 0.0
2018-Jun-10 20:30N 47°40' W 122°23'0 0.0
2018-Jun-10 20:00N 47°40' W 122°23'0 0.0
2018-Jun-10 19:30N 47°40' W 122°23'0 0.0
2018-Jun-10 19:00N 47°40' W 122°23'0 0.0
2018-Jun-10 18:30N 47°40' W 122°23'0 0.0
2018-Jun-10 18:00N 47°40' W 122°23'0 0.0
2018-Jun-10 17:30N 47°40' W 122°23'0 0.0
2018-Jun-10 17:00N 47°40' W 122°23'0 0.0
2018-Jun-10 16:31N 47°40' W 122°23'0 0.0
2018-Jun-10 16:00N 47°40' W 122°23'0 0.0
2018-Jun-10 15:30N 47°40' W 122°23'0 0.0
2018-Jun-10 15:00N 47°40' W 122°23'0 0.0
2018-Jun-10 14:30N 47°40' W 122°23'0 0.0
2018-Jun-10 13:30N 47°40' W 122°23'0 0.0
2018-Jun-10 13:00N 47°40' W 122°23'0 0.0
2018-Jun-10 12:30N 47°40' W 122°23'0 0.0
2018-Jun-10 12:00N 47°40' W 122°23'0 0.0
2018-Jun-10 11:30N 47°40' W 122°23'0 0.0
2018-Jun-10 11:00N 47°40' W 122°23'0 0.0
2018-Jun-10 10:30N 47°40' W 122°23'0 0.0
2018-Jun-10 10:00N 47°40' W 122°23'0 0.0
2018-Jun-10 09:30N 47°40' W 122°23'0 0.0
2018-Jun-10 09:00N 47°40' W 122°23'0 0.0
2018-Jun-10 08:30N 47°40' W 122°23'0 0.0
2018-Jun-10 08:00N 47°40' W 122°23'0 0.0
2018-Jun-10 07:30N 47°40' W 122°23'0 0.0
2018-Jun-10 07:00N 47°40' W 122°23'0 0.0
2018-Jun-10 06:30N 47°40' W 122°23'0 0.0
2018-Jun-10 06:00N 47°40' W 122°23'0 0.0
2018-Jun-10 05:30N 47°40' W 122°23'0 0.0
2018-Jun-10 05:00N 47°40' W 122°23'0 0.0
2018-Jun-10 04:30N 47°40' W 122°23'0 0.0
2018-Jun-10 04:00N 47°40' W 122°23'0 0.0
2018-Jun-10 03:30N 47°40' W 122°23'0 0.0
2018-Jun-10 03:00N 47°40' W 122°23'0 0.0
2018-Jun-10 02:30N 47°40' W 122°23'0 0.0
2018-Jun-10 02:00N 47°40' W 122°23'0 0.0
2018-Jun-10 01:30N 47°40' W 122°23'0 0.0
2018-Jun-10 01:00N 47°40' W 122°23'0 0.0
2018-Jun-10 00:30N 47°40' W 122°23'0 0.0
2018-Jun-10 00:00N 47°40' W 122°23'0 0.0
2018-Jun-09 23:30N 47°40' W 122°23'0 0.0
2018-Jun-09 23:00N 47°40' W 122°23'0 0.0
2018-Jun-09 22:30N 47°40' W 122°23'0 0.0
2018-Jun-09 22:00N 47°40' W 122°23'0 0.0
2018-Jun-09 21:30N 47°40' W 122°23'0 0.0
2018-Jun-09 21:00N 47°40' W 122°23'0 0.0
2018-Jun-09 20:30N 47°40' W 122°23'0 0.0
2018-Jun-09 20:00N 47°40' W 122°23'0 0.0
2018-Jun-09 19:30N 47°40' W 122°23'0 0.0
2018-Jun-09 19:00N 47°40' W 122°23'0 0.0
2018-Jun-09 18:30N 47°40' W 122°23'0 0.0
2018-Jun-09 18:00N 47°40' W 122°23'0 0.0
2018-Jun-09 17:30N 47°40' W 122°23'0 0.0
2018-Jun-09 17:00N 47°40' W 122°23'0 0.0
2018-Jun-09 16:30N 47°40' W 122°23'0 0.0
2018-Jun-09 16:00N 47°40' W 122°23'0 0.0
2018-Jun-09 15:00N 47°40' W 122°23'0 0.0
2018-Jun-09 14:30N 47°40' W 122°23'0 0.0
2018-Jun-09 14:00N 47°40' W 122°23'0 0.0
2018-Jun-09 13:30N 47°40' W 122°23'0 0.0
2018-Jun-09 13:00N 47°40' W 122°23'0 0.0
2018-Jun-09 12:30N 47°40' W 122°23'0 0.0
2018-Jun-09 12:00N 47°40' W 122°23'0 0.0
2018-Jun-09 11:30N 47°40' W 122°23'0 0.0
2018-Jun-09 11:00N 47°40' W 122°23'0 0.0
2018-Jun-09 10:29N 47°40' W 122°23'0 0.0
2018-Jun-09 10:00N 47°40' W 122°23'0 0.0
2018-Jun-09 09:30N 47°40' W 122°23'0 0.0
2018-Jun-09 09:00N 47°40' W 122°23'0 0.0
2018-Jun-09 08:29N 47°40' W 122°23'0 0.0
2018-Jun-09 08:00N 47°40' W 122°23'0 0.0
2018-Jun-09 07:30N 47°40' W 122°23'0 0.0
2018-Jun-09 07:00N 47°40' W 122°23'0 0.0
2018-Jun-09 06:30N 47°40' W 122°23'0 0.0
2018-Jun-09 06:00N 47°40' W 122°23'0 0.0
2018-Jun-09 05:30N 47°40' W 122°23'0 0.0
2018-Jun-09 05:00N 47°40' W 122°23'0 0.0
2018-Jun-09 04:30N 47°40' W 122°23'0 0.0
2018-Jun-09 04:00N 47°40' W 122°23'0 0.0
2018-Jun-09 03:30N 47°40' W 122°23'0 0.0
2018-Jun-09 03:00N 47°40' W 122°23'0 0.0
2018-Jun-09 02:30N 47°40' W 122°23'0 0.0
2018-Jun-09 02:00N 47°40' W 122°23'0 0.0
2018-Jun-09 01:30N 47°40' W 122°23'0 0.0
2018-Jun-09 01:00N 47°40' W 122°23'0 0.0
2018-Jun-09 00:30N 47°40' W 122°23'0 0.0
2018-Jun-09 00:00N 47°40' W 122°23'0 0.0
2018-Jun-08 23:30N 47°40' W 122°23'0 0.0
2018-Jun-08 23:00N 47°40' W 122°23'0 0.0
2018-Jun-08 22:30N 47°40' W 122°23'0 0.0
2018-Jun-08 22:00N 47°40' W 122°23'0 0.0
2018-Jun-08 21:30N 47°40' W 122°23'0 0.0
2018-Jun-08 21:00N 47°40' W 122°23'0 0.0
2018-Jun-08 20:30N 47°40' W 122°23'0 0.0
2018-Jun-08 20:00N 47°40' W 122°23'0 0.0
2018-Jun-08 19:30N 47°40' W 122°23'0 0.0
2018-Jun-08 18:57N 47°40' W 122°23'0 0.0
2018-Jun-08 18:30N 47°40' W 122°23'0 0.0
2018-Jun-08 18:00N 47°40' W 122°23'0 0.0
2018-Jun-08 17:30N 47°40' W 122°23'0 0.0
2018-Jun-08 16:58N 47°40' W 122°23'0 0.0
2018-Jun-08 16:30N 47°40' W 122°23'0 0.0
2018-Jun-08 16:00N 47°40' W 122°23'0 0.0
2018-Jun-08 15:30N 47°40' W 122°23'0 0.0
2018-Jun-08 15:00N 47°40' W 122°23'0 0.0
2018-Jun-08 14:30N 47°40' W 122°23'0 0.0
2018-Jun-08 14:00N 47°40' W 122°23'0 0.0
2018-Jun-08 13:30N 47°40' W 122°23'0 0.0
2018-Jun-08 13:00N 47°40' W 122°23'0 0.0
2018-Jun-08 12:30N 47°40' W 122°23'0 0.0
2018-Jun-08 12:00N 47°40' W 122°23'0 0.0
2018-Jun-08 11:30N 47°40' W 122°23'0 0.0
2018-Jun-08 11:00N 47°40' W 122°23'0 0.0
2018-Jun-08 10:30N 47°40' W 122°23'0 0.0
2018-Jun-08 10:00N 47°40' W 122°23'0 0.0
2018-Jun-08 09:30N 47°40' W 122°23'0 0.0
2018-Jun-08 09:00N 47°40' W 122°23'0 0.0
2018-Jun-08 08:30N 47°40' W 122°23'0 0.0
2018-Jun-08 08:00N 47°40' W 122°23'0 0.0
2018-Jun-08 07:30N 47°40' W 122°23'0 0.0
2018-Jun-08 07:00N 47°40' W 122°23'0 0.0
2018-Jun-08 06:30N 47°40' W 122°23'0 0.0
2018-Jun-08 06:00N 47°40' W 122°23'0 0.0
2018-Jun-08 05:30N 47°40' W 122°23'0 0.0
2018-Jun-08 04:59N 47°40' W 122°23'0 0.0
2018-Jun-08 04:30N 47°40' W 122°23'0 0.0
2018-Jun-08 04:00N 47°40' W 122°23'0 0.0
2018-Jun-08 03:30N 47°40' W 122°23'0 0.0
2018-Jun-08 03:00N 47°40' W 122°23'0 0.0
2018-Jun-08 02:30N 47°40' W 122°23'0 0.0
2018-Jun-08 01:59N 47°40' W 122°23'0 0.0
2018-Jun-08 01:29N 47°40' W 122°23'0 0.0
2018-Jun-08 01:00N 47°40' W 122°23'0 0.0
2018-Jun-08 00:30N 47°40' W 122°23'0 0.0
2018-Jun-08 00:00N 47°40' W 122°23'0 0.0
2018-Jun-07 23:30N 47°40' W 122°23'0 0.0
2018-Jun-07 23:00N 47°40' W 122°23'0 0.0
2018-Jun-07 22:30N 47°40' W 122°23'0 0.0
2018-Jun-07 22:00N 47°40' W 122°23'0 0.0
2018-Jun-07 21:30N 47°40' W 122°23'0 0.0
2018-Jun-07 21:00N 47°40' W 122°23'  
Track history (hours):
 
Tides and Currents Weather Stations Pressure Air Temp Water Temp Dewpoint Dewpoint Depression Visibility Wind Speed Wind Dir Waves Ship Positions

Westward Wind

Owner: HIGHLAND LIGHT SEAFOODS LLC, SEATTLE, WA. More information available from US FCC via Universal Licensing System and Coast Guard Vessel Documentation Center.

Last reported at 2018-Jun-17 20:41 UTC. Time now 2018-Jun-17 23:50 UTC.
Position N 50°30' W 126°30'.

Length 49 m.

Type: Fishing. MMSI: 367000620.

Date/timePositionNaut miles runAvg speedWind from/ knotsBaromVisibWave heightAir tempDewpointWater temp
2018-Jun-17 20:41N 50°30' W 126°30'4110.6
2018-Jun-17 16:49N 50°20' W 125°27'4 9.6
2018-Jun-17 16:25N 50°17' W 125°24'410.0
2018-Jun-17 16:00N 50°13' W 125°23'5 9.4
2018-Jun-17 15:30N 50°08' W 125°21'4 8.1
2018-Jun-17 15:01N 50°06' W 125°17'4 7.4
2018-Jun-17 14:30N 50°02' W 125°14'3 5.8
2018-Jun-17 14:00N 49°60' W 125°12'3 5.3
2018-Jun-17 13:30N 49°58' W 125°10'4 8.5
2018-Jun-17 13:00N 49°55' W 125°05'5 9.3
2018-Jun-17 12:30N 49°51' W 125°00'5 9.2
2018-Jun-17 12:00N 49°48' W 124°55'5 9.0
2018-Jun-17 11:30N 49°45' W 124°50'4 8.7
2018-Jun-17 11:00N 49°42' W 124°45'4 8.6
2018-Jun-17 10:30N 49°39' W 124°40'4 8.3
2018-Jun-17 09:59N 49°36' W 124°35'4 8.0
2018-Jun-17 09:28N 49°33' W 124°31'4 8.3
2018-Jun-17 08:56N 49°30' W 124°26'84 7.9
2018-Jun-16 22:19N 48°41' W 122°42'3 8.1
2018-Jun-16 22:00N 48°39' W 122°43'6 8.3
2018-Jun-16 21:15N 48°32' W 122°44'36 8.6
2018-Jun-16 17:02N 47°57' W 122°32'011.3
2018-Jun-16 17:00N 47°57' W 122°32'510.2
2018-Jun-16 16:30N 47°53' W 122°28'5 9.5
2018-Jun-16 16:00N 47°48' W 122°26'4 8.4
2018-Jun-16 15:30N 47°44' W 122°25'4 7.5
2018-Jun-16 15:00N 47°40' W 122°24'1 1.1
2018-Jun-16 14:30N 47°40' W 122°24'1 1.7
2018-Jun-16 14:00N 47°40' W 122°23'0 0.1
2018-Jun-16 13:30N 47°40' W 122°23'0 0.0
2018-Jun-16 13:00N 47°40' W 122°23'0 0.0
2018-Jun-16 12:30N 47°40' W 122°23'0 0.0
2018-Jun-16 12:00N 47°40' W 122°23'0 0.0
2018-Jun-16 11:30N 47°40' W 122°23'0 0.0
2018-Jun-16 11:00N 47°40' W 122°23'0 0.1
2018-Jun-16 10:30N 47°40' W 122°23'0 0.1
2018-Jun-16 10:00N 47°40' W 122°23'0 0.1
2018-Jun-16 09:30N 47°40' W 122°23'0 0.1
2018-Jun-16 09:00N 47°40' W 122°23'0 0.0
2018-Jun-16 08:30N 47°40' W 122°23'0 0.0
2018-Jun-16 08:00N 47°40' W 122°23'0 0.0
2018-Jun-16 07:30N 47°40' W 122°23'0 0.0
2018-Jun-16 07:00N 47°40' W 122°23'0 0.0
2018-Jun-16 06:30N 47°40' W 122°23'0 0.0
2018-Jun-16 06:00N 47°40' W 122°23'0 0.0
2018-Jun-16 05:30N 47°40' W 122°23'0 0.0
2018-Jun-16 05:00N 47°40' W 122°23'0 0.0
2018-Jun-16 04:30N 47°40' W 122°23'0 0.0
2018-Jun-16 04:00N 47°40' W 122°23'0 0.0
2018-Jun-16 03:30N 47°40' W 122°23'0 0.0
2018-Jun-16 03:00N 47°40' W 122°23'0 0.0
2018-Jun-16 02:30N 47°40' W 122°23'0 0.0
2018-Jun-16 02:00N 47°40' W 122°23'0 0.0
2018-Jun-16 01:30N 47°40' W 122°23'0 0.0
2018-Jun-16 01:00N 47°40' W 122°23'0 0.0
2018-Jun-16 00:30N 47°40' W 122°23'0 0.0
2018-Jun-16 00:00N 47°40' W 122°23'0 0.0
2018-Jun-15 23:30N 47°40' W 122°23'0 0.0
2018-Jun-15 23:00N 47°40' W 122°23'0 0.0
2018-Jun-15 22:30N 47°40' W 122°23'0 0.0
2018-Jun-15 22:00N 47°40' W 122°23'0 0.0
2018-Jun-15 21:30N 47°40' W 122°23'0 0.0
2018-Jun-15 21:00N 47°40' W 122°23'0 0.0
2018-Jun-15 20:30N 47°40' W 122°23'0 0.0
2018-Jun-15 20:00N 47°40' W 122°23'0 0.3
2018-Jun-15 19:30N 47°39' W 122°23'0 0.0
2018-Jun-15 19:00N 47°39' W 122°23'0 0.0
2018-Jun-15 18:30N 47°39' W 122°23'0 0.0
2018-Jun-15 18:00N 47°39' W 122°23'0 0.3
2018-Jun-15 17:30N 47°40' W 122°23'0 0.0
2018-Jun-15 17:00N 47°40' W 122°23'0 0.0
2018-Jun-15 16:30N 47°40' W 122°23'0 0.0
2018-Jun-15 16:00N 47°40' W 122°23'0 0.0
2018-Jun-15 15:30N 47°40' W 122°23'0 0.0
2018-Jun-15 15:00N 47°40' W 122°23'0 0.0
2018-Jun-15 14:30N 47°40' W 122°23'0 0.0
2018-Jun-15 14:00N 47°40' W 122°23'0 0.0
2018-Jun-15 13:30N 47°40' W 122°23'0 0.0
2018-Jun-15 13:00N 47°40' W 122°23'0 0.0
2018-Jun-15 12:30N 47°40' W 122°23'0 0.0
2018-Jun-15 12:00N 47°40' W 122°23'0 0.0
2018-Jun-15 11:30N 47°40' W 122°23'0 0.0
2018-Jun-15 11:00N 47°40' W 122°23'0 0.0
2018-Jun-15 10:30N 47°40' W 122°23'0 0.0
2018-Jun-15 10:00N 47°40' W 122°23'0 0.0
2018-Jun-15 09:30N 47°40' W 122°23'0 0.0
2018-Jun-15 09:00N 47°40' W 122°23'0 0.0
2018-Jun-15 08:30N 47°40' W 122°23'0 0.0
2018-Jun-15 08:00N 47°40' W 122°23'0 0.0
2018-Jun-15 07:30N 47°40' W 122°23'0 0.0
2018-Jun-15 07:00N 47°40' W 122°23'0 0.0
2018-Jun-15 06:30N 47°40' W 122°23'0 0.0
2018-Jun-15 06:00N 47°40' W 122°23'0 0.0
2018-Jun-15 05:30N 47°40' W 122°23'0 0.0
2018-Jun-15 05:00N 47°40' W 122°23'0 0.0
2018-Jun-15 04:30N 47°40' W 122°23'0 0.0
2018-Jun-15 04:00N 47°40' W 122°23'0 0.0
2018-Jun-15 03:30N 47°40' W 122°23'0 0.0
2018-Jun-15 03:00N 47°40' W 122°23'0 0.0
2018-Jun-15 02:30N 47°40' W 122°23'0 0.0
2018-Jun-15 02:00N 47°40' W 122°23'0 0.0
2018-Jun-15 01:30N 47°40' W 122°23'0 0.0
2018-Jun-15 01:00N 47°40' W 122°23'0 0.1
2018-Jun-15 00:30N 47°40' W 122°23'0 0.1
2018-Jun-15 00:00N 47°40' W 122°23'0 0.0
2018-Jun-14 23:30N 47°40' W 122°23'0 0.1
2018-Jun-14 23:00N 47°40' W 122°23'0 0.1
2018-Jun-14 22:30N 47°40' W 122°23'0 0.0
2018-Jun-14 22:00N 47°40' W 122°23'0 0.0
2018-Jun-14 21:30N 47°40' W 122°23'0 0.0
2018-Jun-14 21:00N 47°40' W 122°23'0 0.0
2018-Jun-14 20:30N 47°40' W 122°23'0 0.0
2018-Jun-14 20:00N 47°40' W 122°23'0 0.1
2018-Jun-14 19:31N 47°40' W 122°23'1 1.2
2018-Jun-14 19:00N 47°40' W 122°23'0 0.0
2018-Jun-14 18:30N 47°40' W 122°23'0 0.0
2018-Jun-14 18:00N 47°40' W 122°23'0 0.0
2018-Jun-14 17:30N 47°40' W 122°23'0 0.0
2018-Jun-14 17:00N 47°40' W 122°23'0 0.0
2018-Jun-14 16:30N 47°40' W 122°23'0 0.0
2018-Jun-14 16:00N 47°40' W 122°23'0 0.0
2018-Jun-14 15:30N 47°40' W 122°23'0 0.0
2018-Jun-14 15:00N 47°40' W 122°23'0 0.4
2018-Jun-14 14:30N 47°40' W 122°23'0 0.9
2018-Jun-14 14:00N 47°40' W 122°23'0 0.0
2018-Jun-14 13:30N 47°40' W 122°23'0 0.0
2018-Jun-14 13:00N 47°40' W 122°23'0 0.0
2018-Jun-14 12:30N 47°40' W 122°23'0 0.0
2018-Jun-14 12:00N 47°40' W 122°23'0 0.0
2018-Jun-14 11:30N 47°40' W 122°23'0 0.0
2018-Jun-14 11:00N 47°40' W 122°23'0 0.0
2018-Jun-14 10:30N 47°40' W 122°23'0 0.0
2018-Jun-14 10:00N 47°40' W 122°23'0 0.0
2018-Jun-14 09:30N 47°40' W 122°23'0 0.0
2018-Jun-14 09:00N 47°40' W 122°23'0 0.0
2018-Jun-14 08:30N 47°40' W 122°23'0 0.0
2018-Jun-14 08:00N 47°40' W 122°23'0 0.0
2018-Jun-14 07:30N 47°40' W 122°23'0 0.0
2018-Jun-14 07:00N 47°40' W 122°23'0 0.0
2018-Jun-14 06:30N 47°40' W 122°23'0 0.0
2018-Jun-14 06:00N 47°40' W 122°23'0 0.0
2018-Jun-14 05:30N 47°40' W 122°23'0 0.0
2018-Jun-14 05:00N 47°40' W 122°23'0 0.0
2018-Jun-14 04:30N 47°40' W 122°23'0 0.0
2018-Jun-14 04:00N 47°40' W 122°23'0 0.0
2018-Jun-14 03:30N 47°40' W 122°23'0 0.0
2018-Jun-14 03:00N 47°40' W 122°23'0 0.0
2018-Jun-14 02:30N 47°40' W 122°23'0 0.0
2018-Jun-14 02:00N 47°40' W 122°23'0 0.0
2018-Jun-14 01:30N 47°40' W 122°23'0 0.0
2018-Jun-14 01:00N 47°40' W 122°23'0 0.0
2018-Jun-14 00:30N 47°40' W 122°23'0 0.0
2018-Jun-14 00:00N 47°40' W 122°23'0 0.0
2018-Jun-13 23:30N 47°40' W 122°23'0 0.0
2018-Jun-13 23:00N 47°40' W 122°23'0 0.0
2018-Jun-13 22:30N 47°40' W 122°23'0 0.0
2018-Jun-13 22:00N 47°40' W 122°23'0 0.0
2018-Jun-13 21:30N 47°40' W 122°23'0 0.0
2018-Jun-13 21:00N 47°40' W 122°23'0 0.0
2018-Jun-13 20:30N 47°40' W 122°23'0 0.0
2018-Jun-13 20:00N 47°40' W 122°23'0 0.0
2018-Jun-13 19:30N 47°40' W 122°23'0 0.0
2018-Jun-13 19:00N 47°40' W 122°23'0 0.0
2018-Jun-13 18:30N 47°40' W 122°23'0 0.0
2018-Jun-13 17:59N 47°40' W 122°23'0 0.0
2018-Jun-13 17:30N 47°40' W 122°23'0 0.0
2018-Jun-13 17:00N 47°40' W 122°23'0 0.0
2018-Jun-13 16:30N 47°40' W 122°23'0 0.0
2018-Jun-13 16:00N 47°40' W 122°23'0 0.0
2018-Jun-13 15:30N 47°40' W 122°23'0 0.0
2018-Jun-13 15:00N 47°40' W 122°23'0 0.0
2018-Jun-13 14:30N 47°40' W 122°23'0 0.0
2018-Jun-13 14:00N 47°40' W 122°23'0 0.0
2018-Jun-13 13:30N 47°40' W 122°23'0 0.0
2018-Jun-13 13:00N 47°40' W 122°23'0 0.0
2018-Jun-13 12:30N 47°40' W 122°23'0 0.0
2018-Jun-13 12:00N 47°40' W 122°23'0 0.0
2018-Jun-13 11:30N 47°40' W 122°23'0 0.0
2018-Jun-13 11:00N 47°40' W 122°23'0 0.0
2018-Jun-13 10:30N 47°40' W 122°23'0 0.0
2018-Jun-13 10:00N 47°40' W 122°23'0 0.0
2018-Jun-13 09:30N 47°40' W 122°23'0 0.0
2018-Jun-13 09:00N 47°40' W 122°23'0 0.0
2018-Jun-13 08:30N 47°40' W 122°23'0 0.0
2018-Jun-13 08:00N 47°40' W 122°23'0 0.0
2018-Jun-13 07:30N 47°40' W 122°23'0 0.0
2018-Jun-13 07:00N 47°40' W 122°23'0 0.0
2018-Jun-13 06:30N 47°40' W 122°23'0 0.0
2018-Jun-13 06:00N 47°40' W 122°23'0 0.0
2018-Jun-13 05:30N 47°40' W 122°23'0 0.0
2018-Jun-13 05:00N 47°40' W 122°23'0 0.0
2018-Jun-13 04:30N 47°40' W 122°23'0 0.0
2018-Jun-13 04:00N 47°40' W 122°23'0 0.0
2018-Jun-13 03:30N 47°40' W 122°23'0 0.0
2018-Jun-13 03:00N 47°40' W 122°23'0 0.0
2018-Jun-13 02:30N 47°40' W 122°23'0 0.0
2018-Jun-13 02:00N 47°40' W 122°23'0 0.0
2018-Jun-13 01:30N 47°40' W 122°23'0 0.0
2018-Jun-13 01:00N 47°40' W 122°23'0 0.0
2018-Jun-13 00:30N 47°40' W 122°23'0 0.0
2018-Jun-13 00:00N 47°40' W 122°23'0 0.0
2018-Jun-12 23:29N 47°40' W 122°23'0 0.0
2018-Jun-12 23:00N 47°40' W 122°23'0 0.0
2018-Jun-12 22:30N 47°40' W 122°23'0 0.0
2018-Jun-12 22:00N 47°40' W 122°23'0 0.0
2018-Jun-12 21:30N 47°40' W 122°23'0 0.0
2018-Jun-12 21:00N 47°40' W 122°23'0 0.0
2018-Jun-12 20:30N 47°40' W 122°23'0 0.0
2018-Jun-12 20:00N 47°40' W 122°23'0 0.0
2018-Jun-12 19:30N 47°40' W 122°23'0 0.0
2018-Jun-12 19:00N 47°40' W 122°23'0 0.0
2018-Jun-12 18:30N 47°40' W 122°23'0 0.0
2018-Jun-12 18:00N 47°40' W 122°23'0 0.0
2018-Jun-12 17:30N 47°40' W 122°23'0 0.0
2018-Jun-12 17:00N 47°40' W 122°23'0 0.0
2018-Jun-12 16:30N 47°40' W 122°23'0 0.0
2018-Jun-12 16:00N 47°40' W 122°23'0 0.0
2018-Jun-12 15:30N 47°40' W 122°23'0 0.0
2018-Jun-12 15:00N 47°40' W 122°23'0 0.0
2018-Jun-12 14:30N 47°40' W 122°23'0 0.0
2018-Jun-12 14:00N 47°40' W 122°23'0 0.0
2018-Jun-12 13:30N 47°40' W 122°23'0 0.0
2018-Jun-12 13:00N 47°40' W 122°23'0 0.0
2018-Jun-12 12:30N 47°40' W 122°23'0 0.0
2018-Jun-12 12:00N 47°40' W 122°23'0 0.0
2018-Jun-12 11:30N 47°40' W 122°23'0 0.0
2018-Jun-12 11:00N 47°40' W 122°23'0 0.0
2018-Jun-12 10:30N 47°40' W 122°23'0 0.0
2018-Jun-12 10:00N 47°40' W 122°23'0 0.0
2018-Jun-12 09:30N 47°40' W 122°23'0 0.0
2018-Jun-12 09:00N 47°40' W 122°23'0 0.0
2018-Jun-12 08:30N 47°40' W 122°23'0 0.0
2018-Jun-12 08:00N 47°40' W 122°23'0 0.0
2018-Jun-12 07:29N 47°40' W 122°23'0 0.0
2018-Jun-12 07:00N 47°40' W 122°23'0 0.0
2018-Jun-12 06:30N 47°40' W 122°23'0 0.0
2018-Jun-12 06:00N 47°40' W 122°23'0 0.0
2018-Jun-12 05:30N 47°40' W 122°23'0 0.0
2018-Jun-12 05:00N 47°40' W 122°23'0 0.0
2018-Jun-12 04:30N 47°40' W 122°23'0 0.0
2018-Jun-12 04:00N 47°40' W 122°23'0 0.0
2018-Jun-12 03:30N 47°40' W 122°23'0 0.0
2018-Jun-12 03:00N 47°40' W 122°23'0 0.0
2018-Jun-12 02:29N 47°40' W 122°23'0 0.0
2018-Jun-12 02:00N 47°40' W 122°23'0 0.0
2018-Jun-12 01:30N 47°40' W 122°23'0 0.0
2018-Jun-12 01:00N 47°40' W 122°23'0 0.0
2018-Jun-12 00:30N 47°40' W 122°23'0 0.0
2018-Jun-11 23:59N 47°40' W 122°23'0 0.0
2018-Jun-11 23:30N 47°40' W 122°23'0 0.0
2018-Jun-11 23:00N 47°40' W 122°23'0 0.0
2018-Jun-11 22:30N 47°40' W 122°23'0 0.0
2018-Jun-11 22:00N 47°40' W 122°23'0 0.0
2018-Jun-11 21:30N 47°40' W 122°23'0 0.0
2018-Jun-11 21:00N 47°40' W 122°23'0 0.0
2018-Jun-11 20:30N 47°40' W 122°23'0 0.0
2018-Jun-11 20:00N 47°40' W 122°23'0 0.0
2018-Jun-11 19:30N 47°40' W 122°23'0 0.0
2018-Jun-11 19:00N 47°40' W 122°23'0 0.0
2018-Jun-11 18:30N 47°40' W 122°23'0 0.0
2018-Jun-11 18:00N 47°40' W 122°23'0 0.0
2018-Jun-11 17:30N 47°40' W 122°23'0 0.0
2018-Jun-11 17:00N 47°40' W 122°23'0 0.0
2018-Jun-11 16:29N 47°40' W 122°23'0 0.0
2018-Jun-11 16:00N 47°40' W 122°23'0 0.0
2018-Jun-11 15:30N 47°40' W 122°23'0 0.0
2018-Jun-11 15:00N 47°40' W 122°23'0 0.0
2018-Jun-11 14:30N 47°40' W 122°23'0 0.0
2018-Jun-11 14:00N 47°40' W 122°23'0 0.0
2018-Jun-11 13:30N 47°40' W 122°23'0 0.0
2018-Jun-11 13:00N 47°40' W 122°23'0 0.0
2018-Jun-11 12:30N 47°40' W 122°23'0 0.0
2018-Jun-11 12:00N 47°40' W 122°23'0 0.0
2018-Jun-11 11:30N 47°40' W 122°23'0 0.0
2018-Jun-11 11:00N 47°40' W 122°23'0 0.0
2018-Jun-11 10:30N 47°40' W 122°23'0 0.0
2018-Jun-11 10:00N 47°40' W 122°23'0 0.0
2018-Jun-11 09:30N 47°40' W 122°23'0 0.0
2018-Jun-11 09:00N 47°40' W 122°23'0 0.0
2018-Jun-11 08:30N 47°40' W 122°23'0 0.0
2018-Jun-11 08:00N 47°40' W 122°23'0 0.0
2018-Jun-11 07:30N 47°40' W 122°23'0 0.0
2018-Jun-11 07:00N 47°40' W 122°23'0 0.0
2018-Jun-11 06:30N 47°40' W 122°23'0 0.0
2018-Jun-11 06:00N 47°40' W 122°23'0 0.0
2018-Jun-11 05:30N 47°40' W 122°23'0 0.0
2018-Jun-11 05:00N 47°40' W 122°23'0 0.0
2018-Jun-11 04:30N 47°40' W 122°23'0 0.0
2018-Jun-11 04:00N 47°40' W 122°23'0 0.0
2018-Jun-11 03:30N 47°40' W 122°23'0 0.0
2018-Jun-11 03:00N 47°40' W 122°23'0 0.0
2018-Jun-11 02:30N 47°40' W 122°23'0 0.0
2018-Jun-11 02:00N 47°40' W 122°23'0 0.0
2018-Jun-11 01:30N 47°40' W 122°23'0 0.0
2018-Jun-11 01:00N 47°40' W 122°23'0 0.0
2018-Jun-11 00:30N 47°40' W 122°23'0 0.0
2018-Jun-11 00:00N 47°40' W 122°23'0 0.0
2018-Jun-10 23:30N 47°40' W 122°23'0 0.0
2018-Jun-10 23:00N 47°40' W 122°23'0 0.0
2018-Jun-10 22:30N 47°40' W 122°23'0 0.0
2018-Jun-10 22:00N 47°40' W 122°23'0 0.0
2018-Jun-10 21:30N 47°40' W 122°23'0 0.0
2018-Jun-10 21:00N 47°40' W 122°23'0 0.0
2018-Jun-10 20:30N 47°40' W 122°23'0 0.0
2018-Jun-10 20:00N 47°40' W 122°23'0 0.0
2018-Jun-10 19:30N 47°40' W 122°23'0 0.0
2018-Jun-10 19:00N 47°40' W 122°23'0 0.0
2018-Jun-10 18:30N 47°40' W 122°23'0 0.0
2018-Jun-10 18:00N 47°40' W 122°23'0 0.0
2018-Jun-10 17:30N 47°40' W 122°23'0 0.0
2018-Jun-10 17:00N 47°40' W 122°23'0 0.0
2018-Jun-10 16:31N 47°40' W 122°23'0 0.0
2018-Jun-10 16:00N 47°40' W 122°23'0 0.0
2018-Jun-10 15:30N 47°40' W 122°23'0 0.0
2018-Jun-10 15:00N 47°40' W 122°23'0 0.0
2018-Jun-10 14:30N 47°40' W 122°23'0 0.0
2018-Jun-10 13:30N 47°40' W 122°23'0 0.0
2018-Jun-10 13:00N 47°40' W 122°23'0 0.0
2018-Jun-10 12:30N 47°40' W 122°23'0 0.0
2018-Jun-10 12:00N 47°40' W 122°23'0 0.0
2018-Jun-10 11:30N 47°40' W 122°23'0 0.0
2018-Jun-10 11:00N 47°40' W 122°23'0 0.0
2018-Jun-10 10:30N 47°40' W 122°23'0 0.0
2018-Jun-10 10:00N 47°40' W 122°23'0 0.0
2018-Jun-10 09:30N 47°40' W 122°23'0 0.0
2018-Jun-10 09:00N 47°40' W 122°23'0 0.0
2018-Jun-10 08:30N 47°40' W 122°23'0 0.0
2018-Jun-10 08:00N 47°40' W 122°23'0 0.0
2018-Jun-10 07:30N 47°40' W 122°23'0 0.0
2018-Jun-10 07:00N 47°40' W 122°23'0 0.0
2018-Jun-10 06:30N 47°40' W 122°23'0 0.0
2018-Jun-10 06:00N 47°40' W 122°23'0 0.0
2018-Jun-10 05:30N 47°40' W 122°23'0 0.0
2018-Jun-10 05:00N 47°40' W 122°23'0 0.0
2018-Jun-10 04:30N 47°40' W 122°23'0 0.0
2018-Jun-10 04:00N 47°40' W 122°23'0 0.0
2018-Jun-10 03:30N 47°40' W 122°23'0 0.0
2018-Jun-10 03:00N 47°40' W 122°23'0 0.0
2018-Jun-10 02:30N 47°40' W 122°23'0 0.0
2018-Jun-10 02:00N 47°40' W 122°23'0 0.0
2018-Jun-10 01:30N 47°40' W 122°23'0 0.0
2018-Jun-10 01:00N 47°40' W 122°23'0 0.0
2018-Jun-10 00:30N 47°40' W 122°23'0 0.0
2018-Jun-10 00:00N 47°40' W 122°23'0 0.0
2018-Jun-09 23:30N 47°40' W 122°23'0 0.0
2018-Jun-09 23:00N 47°40' W 122°23'0 0.0
2018-Jun-09 22:30N 47°40' W 122°23'0 0.0
2018-Jun-09 22:00N 47°40' W 122°23'0 0.0
2018-Jun-09 21:30N 47°40' W 122°23'0 0.0
2018-Jun-09 21:00N 47°40' W 122°23'0 0.0
2018-Jun-09 20:30N 47°40' W 122°23'0 0.0
2018-Jun-09 20:00N 47°40' W 122°23'0 0.0
2018-Jun-09 19:30N 47°40' W 122°23'0 0.0
2018-Jun-09 19:00N 47°40' W 122°23'0 0.0
2018-Jun-09 18:30N 47°40' W 122°23'0 0.0
2018-Jun-09 18:00N 47°40' W 122°23'0 0.0
2018-Jun-09 17:30N 47°40' W 122°23'0 0.0
2018-Jun-09 17:00N 47°40' W 122°23'0 0.0
2018-Jun-09 16:30N 47°40' W 122°23'0 0.0
2018-Jun-09 16:00N 47°40' W 122°23'0 0.0
2018-Jun-09 15:00N 47°40' W 122°23'0 0.0
2018-Jun-09 14:30N 47°40' W 122°23'0 0.0
2018-Jun-09 14:00N 47°40' W 122°23'0 0.0
2018-Jun-09 13:30N 47°40' W 122°23'0 0.0
2018-Jun-09 13:00N 47°40' W 122°23'0 0.0
2018-Jun-09 12:30N 47°40' W 122°23'0 0.0
2018-Jun-09 12:00N 47°40' W 122°23'0 0.0
2018-Jun-09 11:30N 47°40' W 122°23'0 0.0
2018-Jun-09 11:00N 47°40' W 122°23'0 0.0
2018-Jun-09 10:29N 47°40' W 122°23'0 0.0
2018-Jun-09 10:00N 47°40' W 122°23'0 0.0
2018-Jun-09 09:30N 47°40' W 122°23'0 0.0
2018-Jun-09 09:00N 47°40' W 122°23'0 0.0
2018-Jun-09 08:29N 47°40' W 122°23'0 0.0
2018-Jun-09 08:00N 47°40' W 122°23'0 0.0
2018-Jun-09 07:30N 47°40' W 122°23'0 0.0
2018-Jun-09 07:00N 47°40' W 122°23'0 0.0
2018-Jun-09 06:30N 47°40' W 122°23'0 0.0
2018-Jun-09 06:00N 47°40' W 122°23'0 0.0
2018-Jun-09 05:30N 47°40' W 122°23'0 0.0
2018-Jun-09 05:00N 47°40' W 122°23'0 0.0
2018-Jun-09 04:30N 47°40' W 122°23'0 0.0
2018-Jun-09 04:00N 47°40' W 122°23'0 0.0
2018-Jun-09 03:30N 47°40' W 122°23'0 0.0
2018-Jun-09 03:00N 47°40' W 122°23'0 0.0
2018-Jun-09 02:30N 47°40' W 122°23'0 0.0
2018-Jun-09 02:00N 47°40' W 122°23'0 0.0
2018-Jun-09 01:30N 47°40' W 122°23'0 0.0
2018-Jun-09 01:00N 47°40' W 122°23'0 0.0
2018-Jun-09 00:30N 47°40' W 122°23'0 0.0
2018-Jun-09 00:00N 47°40' W 122°23'0 0.0
2018-Jun-08 23:30N 47°40' W 122°23'0 0.0
2018-Jun-08 23:00N 47°40' W 122°23'0 0.0
2018-Jun-08 22:30N 47°40' W 122°23'0 0.0
2018-Jun-08 22:00N 47°40' W 122°23'0 0.0
2018-Jun-08 21:30N 47°40' W 122°23'0 0.0
2018-Jun-08 21:00N 47°40' W 122°23'0 0.0
2018-Jun-08 20:30N 47°40' W 122°23'0 0.0
2018-Jun-08 20:00N 47°40' W 122°23'0 0.0
2018-Jun-08 19:30N 47°40' W 122°23'0 0.0
2018-Jun-08 18:57N 47°40' W 122°23'0 0.0
2018-Jun-08 18:30N 47°40' W 122°23'0 0.0
2018-Jun-08 18:00N 47°40' W 122°23'0 0.0
2018-Jun-08 17:30N 47°40' W 122°23'0 0.0
2018-Jun-08 16:58N 47°40' W 122°23'0 0.0
2018-Jun-08 16:30N 47°40' W 122°23'0 0.0
2018-Jun-08 16:00N 47°40' W 122°23'0 0.0
2018-Jun-08 15:30N 47°40' W 122°23'0 0.0
2018-Jun-08 15:00N 47°40' W 122°23'0 0.0
2018-Jun-08 14:30N 47°40' W 122°23'0 0.0
2018-Jun-08 14:00N 47°40' W 122°23'0 0.0
2018-Jun-08 13:30N 47°40' W 122°23'0 0.0
2018-Jun-08 13:00N 47°40' W 122°23'0 0.0
2018-Jun-08 12:30N 47°40' W 122°23'0 0.0
2018-Jun-08 12:00N 47°40' W 122°23'0 0.0
2018-Jun-08 11:30N 47°40' W 122°23'0 0.0
2018-Jun-08 11:00N 47°40' W 122°23'0 0.0
2018-Jun-08 10:30N 47°40' W 122°23'0 0.0
2018-Jun-08 10:00N 47°40' W 122°23'0 0.0
2018-Jun-08 09:30N 47°40' W 122°23'0 0.0
2018-Jun-08 09:00N 47°40' W 122°23'0 0.0
2018-Jun-08 08:30N 47°40' W 122°23'0 0.0
2018-Jun-08 08:00N 47°40' W 122°23'0 0.0
2018-Jun-08 07:30N 47°40' W 122°23'0 0.0
2018-Jun-08 07:00N 47°40' W 122°23'0 0.0
2018-Jun-08 06:30N 47°40' W 122°23'0 0.0
2018-Jun-08 06:00N 47°40' W 122°23'0 0.0
2018-Jun-08 05:30N 47°40' W 122°23'0 0.0
2018-Jun-08 04:59N 47°40' W 122°23'0 0.0
2018-Jun-08 04:30N 47°40' W 122°23'0 0.0
2018-Jun-08 04:00N 47°40' W 122°23'0 0.0
2018-Jun-08 03:30N 47°40' W 122°23'0 0.0
2018-Jun-08 03:00N 47°40' W 122°23'0 0.0
2018-Jun-08 02:30N 47°40' W 122°23'0 0.0
2018-Jun-08 01:59N 47°40' W 122°23'0 0.0
2018-Jun-08 01:29N 47°40' W 122°23'0 0.0
2018-Jun-08 01:00N 47°40' W 122°23'0 0.0
2018-Jun-08 00:30N 47°40' W 122°23'0 0.0
2018-Jun-08 00:00N 47°40' W 122°23'0 0.0
2018-Jun-07 23:30N 47°40' W 122°23'0 0.0
2018-Jun-07 23:00N 47°40' W 122°23'0 0.0
2018-Jun-07 22:30N 47°40' W 122°23'0 0.0
2018-Jun-07 22:00N 47°40' W 122°23'0 0.0
2018-Jun-07 21:30N 47°40' W 122°23'0 0.0
2018-Jun-07 21:00N 47°40' W 122°23'  

Dump ship's entire track history